• Join FlightAware (Why Join?)
  • Login
  • US Flag 
Trick or treat! (Boo!!) 
07:09PM EDT


 

Airport Tracker/Info


-or-


 

Live Flight TrackerFlight Track Log ✈ SKW4664 ✈ 01-Oct-2013 ✈ KSMF - KLAX

Flight Track Log - Related Links

Times and Time Zones

All times are in EDT time to prevent confusion due to time zone crossing. See the SKW4664 flight status page for this flight to view local times or setup timezone preferences in your user account.

Time Position Orientation Groundspeed Altitude Reporting Facility
EDT Latitude Longitude Course Direction KTS MPH feet Rate Location/Type
12:33PM 38.6500 -121.5500 142° Southeast 204 235 2,000  Level Northern Cal TRACON
12:34PM 38.6000 -121.4833 134° Southeast 256 295 4,500 2,700 Climbing Northern Cal TRACON
12:35PM 38.3808 -121.3656 103° East  Level Estimated
12:35PM 38.5500 -121.4167 134° Southeast 280 322 7,200  Level Northern Cal TRACON
12:36PM 38.2758 -121.2910 111° Southeast  Level Estimated
12:37PM 38.1708 -121.2166 142° Southeast  Level Estimated
12:37PM 38.4633 -121.2581 125° Southeast 320 368 11,600  Level Oakland Center
12:38PM 38.0657 -121.1424 142° Southeast  Level Estimated
12:38PM 38.4214 -121.1517 117° Southeast 333 383 13,700  Level Oakland Center
12:39PM 38.3786 -121.0447 117° Southeast 349 402 15,900 2,040 Climbing Oakland Center
12:40PM 38.3314 -120.9297 118° Southeast 363 418 17,900 1,800 Climbing Oakland Center
12:41PM 38.2817 -120.8081 117° Southeast 379 436 19,600 1,800 Climbing Oakland Center
12:42PM 38.2317 -120.6883 118° Southeast 385 443 21,700 1,980 Climbing Oakland Center
12:43PM 38.1311 -120.5850 141° Southeast 386 444 23,700 1,560 Climbing Oakland Center
12:44PM 38.0447 -120.5000 142° Southeast 391 450 24,900 1,260 Climbing Oakland Center
12:45PM 37.9539 -120.4131 143° Southeast 405 466 26,300 1,020 Climbing Oakland Center
12:46PM 37.8622 -120.3225 142° Southeast 415 478 27,000 540 Climbing Oakland Center
12:47PM 37.7611 -120.2247 143° Southeast 453 521 27,400 720 Climbing Oakland Center
12:48PM 37.6581 -120.1256 143° Southeast 464 534 28,500 960 Climbing Oakland Center
12:49PM 37.5536 -120.0256 143° Southeast 471 542 29,400 1,080 Climbing Oakland Center
12:50PM 37.4506 -119.9258 142° Southeast 469 540 30,800 780 Climbing Oakland Center
12:51PM 37.3467 -119.8256 142° Southeast 469 540 31,000 360 Climbing Oakland Center
12:52PM 37.2258 -119.7406 151° Southeast 482 555 31,600 1,080 Climbing Oakland Center
12:53PM 37.1000 -119.7261 175° South 457 526 33,300 1,320 Climbing Oakland Center
12:54PM 36.9769 -119.7147 176° South 446 513 34,400 780 Climbing Oakland Center
12:55PM 36.8292 -119.6992 175° South 444 511 35,000 240 Climbing Oakland Center
12:56PM 36.7028 -119.6861 175° South 454 522 35,000  Level Oakland Center
12:57PM 36.5764 -119.6728 175° South 455 524 35,000  Level Oakland Center
12:58PM 36.4522 -119.6611 176° South 448 516 35,000  Level Oakland Center
12:59PM 36.3303 -119.6483 175° South 440 506 35,000  Level Oakland Center
01:00PM 36.2086 -119.6369 176° South 437 503 35,000  Level Oakland Center
01:01PM 36.0867 -119.6253 176° South 439 505 35,000  Level Oakland Center
01:02PM 35.9647 -119.6161 177° South 438 504 35,000 -60 Level Oakland Center
01:03PM 35.8428 -119.6197 181° South 438 504 34,900 -660 Descending Oakland Center
01:04PM 35.7169 -119.6253 182° South 447 514 33,800 -1,140 Descending Los Angeles Center
01:05PM 35.5867 -119.6292 181° South 460 529 32,800 -1,020 Descending Los Angeles Center
01:06PM 35.4564 -119.6344 182° South 463 533 31,800 -1,020 Descending Los Angeles Center
01:07PM 35.3292 -119.6389 182° South 458 527 30,800 -1,020 Descending Los Angeles Center
01:08PM 35.2078 -119.6000 165° South 460 529 29,800 -960 Descending Los Angeles Center
01:09PM 35.1053 -119.5117 145° Southeast 453 521 28,900 -1,020 Descending Los Angeles Center
01:10PM 35.0022 -119.4247 145° Southeast 450 518 27,800 -1,320 Descending Los Angeles Center
01:12PM 34.8794 -119.3203 145° Southeast 450 518 26,200 -2,100 Descending Los Angeles Center
01:13PM 34.7811 -119.2367 145° Southeast 437 503 23,500 -2,820 Descending Los Angeles Center
01:14PM 34.6853 -119.1569 146° Southeast 425 489 20,400 -2,940 Descending Los Angeles Center
01:15PM 34.5897 -119.0772 146° Southeast 416 479 17,400 -2,700 Descending Los Angeles Center
01:16PM 34.5003 -119.0025 145° Southeast 393 452 14,800 -2,460 Descending Los Angeles Center
01:17PM 34.4167 -118.9286 144° Southeast 373 429 12,400 -1,380 Descending Los Angeles Center
01:18PM 34.3142 -118.8661 153° Southeast 345 397 12,000 -240 Descending Los Angeles Center
01:19PM 34.2214 -118.8314 163° South 348 400 12,000 -240 Level Los Angeles Center
01:20PM 34.1283 -118.7978 163° South 349 402 11,600 -780 Descending Los Angeles Center
01:21PM 34.0328 -118.7089 142° Southeast 344 396 10,300 -840 Descending Los Angeles Center
01:22PM 34.0208 -118.6064 98° East 312 359 9,800 -780 Descending Los Angeles Center
01:23PM 34.0136 -118.4983 95° East 301 346 8,700 -1,380 Descending Los Angeles Center
01:24PM 34.0172 -118.4019 87° East 292 336 7,000 -1,380 Descending Los Angeles Center
01:25PM 34.0267 -118.3092 83° East 281 323 5,900 -1,380 Descending Los Angeles Center
01:26PM 33.9981 -118.2567 123° Southeast 244 281 4,200 -1,560 Descending Los Angeles Center
01:27PM 33.9633 -118.3050 229° Southwest 216 249 2,700 -1,500 Descending Los Angeles Center
01:28PM 33.9572 -118.3611 263° West 189 217 1,100 -1,200 Descending Los Angeles Center
01:29PM 33.9514 -118.4117 262° West 167 192 300 -780 Descending Los Angeles Center